createdAt,value
2022-11-05T00:00:19.581Z,8.52
2022-11-05T00:03:04.789Z,8.61
2022-11-05T00:05:50.586Z,8.60
2022-11-05T00:08:36.003Z,8.57
2022-11-05T00:11:02.742Z,8.55
2022-11-05T00:13:47.951Z,8.57
2022-11-05T00:16:46.930Z,8.53
2022-11-05T00:19:15.026Z,8.60
2022-11-05T00:22:00.083Z,8.58
2022-11-05T00:24:45.586Z,8.58
2022-11-05T00:27:12.208Z,8.64
2022-11-05T00:29:38.780Z,8.59
2022-11-05T00:32:05.476Z,8.62
2022-11-05T00:34:32.110Z,8.64
2022-11-05T00:36:58.760Z,8.71
2022-11-05T00:39:25.390Z,8.63
2022-11-05T00:42:12.003Z,8.61
2022-11-05T00:44:57.171Z,8.63
2022-11-05T00:47:42.783Z,8.66
2022-11-05T00:50:10.872Z,8.67
2022-11-05T00:52:56.323Z,8.64
2022-11-05T00:55:24.526Z,8.62
2022-11-05T00:57:51.574Z,8.61
2022-11-05T01:00:18.610Z,8.60
2022-11-05T01:02:45.696Z,8.61
2022-11-05T01:05:13.597Z,8.62
2022-11-05T01:07:40.419Z,8.63
2022-11-05T01:10:07.332Z,8.67
2022-11-05T01:12:34.052Z,8.65
2022-11-05T01:15:00.832Z,8.65
2022-11-05T01:17:27.553Z,8.68
2022-11-05T01:19:54.065Z,8.73
2022-11-05T01:22:20.546Z,8.57
2022-11-05T01:24:46.985Z,8.63
2022-11-05T01:27:13.558Z,8.68
2022-11-05T01:29:40.205Z,8.74
2022-11-05T01:32:06.742Z,8.73
2022-11-05T01:34:33.308Z,8.71
2022-11-05T01:36:59.886Z,8.63
2022-11-05T01:39:26.410Z,8.59
2022-11-05T01:41:52.945Z,8.61
2022-11-05T01:44:48.033Z,8.59
2022-11-05T01:47:29.728Z,8.57
2022-11-05T01:50:00.419Z,8.55
2022-11-05T01:52:29.557Z,8.57
2022-11-05T01:54:56.716Z,8.53
2022-11-05T01:57:23.643Z,8.52
2022-11-05T01:59:55.421Z,8.45
2022-11-05T02:02:25.262Z,8.48
2022-11-05T02:04:57.608Z,8.52
2022-11-05T02:07:26.824Z,8.42
2022-11-05T02:10:09.280Z,8.40
2022-11-05T02:12:38.678Z,8.43
2022-11-05T02:15:06.853Z,8.46
2022-11-05T02:17:54.937Z,8.41
2022-11-05T02:20:32.546Z,8.47
2022-11-05T02:23:17.274Z,8.43
2022-11-05T02:25:55.901Z,8.54
2022-11-05T02:28:34.597Z,8.51
2022-11-05T02:31:10.194Z,8.61
2022-11-05T02:34:02.355Z,8.60
2022-11-05T02:36:43.326Z,8.64
2022-11-05T02:39:25.478Z,8.65
2022-11-05T02:42:02.039Z,8.67
2022-11-05T02:44:56.751Z,8.68
2022-11-05T02:47:45.592Z,8.57
2022-11-05T02:50:24.297Z,8.68
2022-11-05T02:53:02.188Z,8.62
2022-11-05T02:55:28.631Z,8.56
2022-11-05T02:57:55.326Z,8.61
2022-11-05T03:00:40.142Z,8.61
2022-11-05T03:03:30.771Z,8.60
2022-11-05T03:06:23.494Z,8.56
2022-11-05T03:09:20.598Z,8.59
2022-11-05T03:12:13.036Z,8.55
2022-11-05T03:15:11.390Z,8.59
2022-11-05T03:18:08.446Z,8.54
2022-11-05T03:20:47.394Z,8.58
2022-11-05T03:23:16.884Z,8.58
2022-11-05T03:25:49.399Z,8.50
2022-11-05T03:28:21.146Z,8.54
2022-11-05T03:30:50.075Z,8.59
2022-11-05T03:33:22.203Z,8.61
2022-11-05T03:35:54.010Z,8.64
2022-11-05T03:38:27.027Z,8.56
2022-11-05T03:40:57.077Z,8.56
2022-11-05T03:43:30.446Z,8.63
2022-11-05T03:46:09.683Z,8.64
2022-11-05T03:48:41.655Z,8.65
2022-11-05T03:51:18.837Z,8.61
2022-11-05T03:53:51.942Z,8.63
2022-11-05T03:56:25.024Z,8.67
2022-11-05T03:58:58.723Z,8.56
2022-11-05T04:01:26.552Z,8.64
2022-11-05T04:03:53.398Z,8.65
2022-11-05T04:06:38.565Z,8.66
2022-11-05T04:09:23.303Z,8.62
2022-11-05T04:12:08.127Z,8.61
2022-11-05T04:14:34.834Z,8.57
2022-11-05T04:17:07.335Z,8.72
2022-11-05T04:20:00.112Z,8.73
2022-11-05T04:22:47.219Z,8.71
2022-11-05T04:25:14.837Z,8.71
2022-11-05T04:27:41.456Z,8.69
2022-11-05T04:30:20.851Z,8.70
2022-11-05T04:33:06.892Z,8.60
2022-11-05T04:35:36.549Z,8.61
2022-11-05T04:38:04.028Z,8.62
2022-11-05T04:40:30.789Z,8.58
2022-11-05T04:42:58.423Z,8.63
2022-11-05T04:45:27.089Z,8.66
2022-11-05T04:47:53.699Z,8.62
2022-11-05T04:50:22.366Z,8.59
2022-11-05T04:52:49.019Z,8.56
2022-11-05T04:55:15.567Z,8.52
2022-11-05T04:57:42.069Z,8.47
2022-11-05T05:00:09.775Z,8.55
2022-11-05T05:02:36.746Z,8.48
2022-11-05T05:05:04.018Z,8.50
2022-11-05T05:07:30.722Z,8.58
2022-11-05T05:09:57.252Z,8.56
2022-11-05T05:12:23.822Z,8.50
2022-11-05T05:14:50.386Z,8.57
2022-11-05T05:17:17.006Z,8.48
2022-11-05T05:20:02.207Z,8.63
2022-11-05T05:22:28.872Z,8.49
2022-11-05T05:24:56.680Z,8.48
2022-11-05T05:27:24.458Z,8.42
2022-11-05T05:29:50.999Z,8.44
2022-11-05T05:32:17.465Z,8.44
2022-11-05T05:34:44.395Z,8.44
2022-11-05T05:37:10.911Z,8.48
2022-11-05T05:39:37.456Z,8.37
2022-11-05T05:42:04.159Z,8.46
2022-11-05T05:44:30.720Z,8.32
2022-11-05T05:46:57.310Z,8.43
2022-11-05T05:49:23.940Z,8.44
2022-11-05T05:51:50.451Z,8.38
2022-11-05T05:54:17.276Z,8.41
2022-11-05T05:56:44.468Z,8.45
2022-11-05T05:59:11.842Z,8.40
2022-11-05T06:01:38.530Z,8.43
2022-11-05T06:04:05.569Z,8.40
2022-11-05T06:06:32.159Z,8.44
2022-11-05T06:08:58.919Z,8.47
2022-11-05T06:11:25.791Z,8.39
2022-11-05T06:13:52.359Z,8.51
2022-11-05T06:16:21.418Z,8.42
2022-11-05T06:18:47.953Z,8.44
2022-11-05T06:21:16.804Z,8.40
2022-11-05T06:23:45.250Z,8.48
2022-11-05T06:26:17.413Z,8.54
2022-11-05T06:28:44.424Z,8.40
2022-11-05T06:31:12.469Z,8.48
2022-11-05T06:33:40.095Z,8.59
2022-11-05T06:36:08.701Z,8.53
2022-11-05T06:38:36.832Z,8.64
2022-11-05T06:41:09.009Z,8.59
2022-11-05T06:43:37.288Z,8.62
2022-11-05T06:46:04.459Z,8.54
2022-11-05T06:48:31.082Z,8.68
2022-11-05T06:50:57.900Z,8.51
2022-11-05T06:53:24.644Z,8.69
2022-11-05T06:55:51.187Z,8.68
2022-11-05T06:58:17.685Z,8.71
2022-11-05T07:00:45.050Z,8.74
2022-11-05T07:03:12.766Z,8.65
2022-11-05T07:05:43.999Z,8.85
2022-11-05T07:08:10.517Z,8.78
2022-11-05T07:10:37.106Z,8.83
2022-11-05T07:13:08.079Z,8.91
2022-11-05T07:15:35.618Z,8.88
2022-11-05T07:18:02.241Z,8.94
2022-11-05T07:20:33.455Z,8.93
2022-11-05T07:23:10.443Z,9.02
2022-11-05T07:25:37.594Z,9.02
2022-11-05T07:28:04.873Z,9.02
2022-11-05T07:30:32.890Z,8.94
2022-11-05T07:32:59.650Z,8.88
2022-11-05T07:35:26.472Z,8.80
2022-11-05T07:37:54.545Z,8.89
2022-11-05T07:40:22.817Z,8.82
2022-11-05T07:42:51.617Z,8.91
2022-11-05T07:45:18.575Z,8.91
2022-11-05T07:47:49.704Z,8.98
2022-11-05T07:50:20.896Z,8.97
2022-11-05T07:52:48.739Z,9.04
2022-11-05T07:55:16.114Z,9.14
2022-11-05T07:57:50.884Z,9.15
2022-11-05T08:00:20.723Z,9.33
2022-11-05T08:03:08.165Z,9.32
2022-11-05T08:05:40.530Z,9.31
2022-11-05T08:08:09.181Z,9.46
2022-11-05T08:10:36.911Z,9.42
2022-11-05T08:13:04.304Z,9.57
2022-11-05T08:15:31.389Z,9.61
2022-11-05T08:18:03.264Z,9.65
2022-11-05T08:20:30.892Z,9.61
2022-11-05T08:22:57.851Z,9.64
2022-11-05T08:25:24.895Z,9.69
2022-11-05T08:27:58.511Z,9.77
2022-11-05T08:30:25.567Z,9.78
2022-11-05T08:32:57.472Z,9.68
2022-11-05T08:35:24.201Z,9.70
2022-11-05T08:37:50.690Z,9.72
2022-11-05T08:40:17.310Z,9.58
2022-11-05T08:42:43.891Z,9.64
2022-11-05T08:45:10.504Z,9.50
2022-11-05T08:47:36.986Z,9.64
2022-11-05T08:50:04.736Z,9.68
2022-11-05T08:52:31.198Z,9.71
2022-11-05T08:54:57.710Z,9.81
2022-11-05T08:57:24.189Z,9.89
2022-11-05T08:59:50.707Z,9.86
2022-11-05T09:02:17.363Z,9.96
2022-11-05T09:04:44.704Z,9.93
2022-11-05T09:07:11.294Z,9.82
2022-11-05T09:09:37.802Z,9.96
2022-11-05T09:12:13.116Z,10.12
2022-11-05T09:14:39.818Z,10.02
2022-11-05T09:20:53.255Z,10.01
2022-11-05T09:23:20.156Z,10.08
2022-11-05T09:25:46.911Z,10.02
2022-11-05T09:28:20.389Z,9.90
2022-11-05T09:30:51.973Z,9.94
2022-11-05T09:33:21.924Z,9.89
2022-11-05T09:35:48.811Z,9.82
2022-11-05T09:38:15.464Z,9.86
2022-11-05T09:40:58.282Z,9.76
2022-11-05T09:43:35.404Z,10.01
2022-11-05T09:46:20.228Z,10.07
2022-11-05T09:48:52.289Z,10.27
2022-11-05T09:51:23.946Z,10.17
2022-11-05T09:53:51.687Z,10.14
2022-11-05T09:56:28.545Z,10.20
2022-11-05T18:38:33.699Z,5.67
2022-11-05T18:41:06.214Z,5.85
2022-11-05T18:43:33.084Z,6.02
2022-11-05T18:45:59.676Z,6.00
2022-11-05T18:48:26.124Z,5.97
2022-11-05T18:50:55.437Z,5.93
2022-11-05T18:53:24.228Z,5.68
2022-11-05T18:55:50.893Z,5.49
2022-11-05T18:58:17.325Z,5.44
2022-11-05T19:00:43.941Z,5.77
2022-11-05T19:03:10.709Z,5.89
2022-11-05T19:05:37.242Z,5.73
2022-11-05T19:08:03.862Z,5.66
2022-11-05T19:10:30.416Z,5.64
2022-11-05T19:12:57.039Z,5.45
2022-11-05T19:15:23.678Z,5.26
2022-11-05T19:17:50.353Z,5.39
2022-11-05T19:20:17.032Z,5.23
2022-11-05T19:22:43.536Z,5.65
2022-11-05T19:25:10.166Z,5.68
2022-11-05T19:27:37.628Z,5.64
2022-11-05T19:30:05.928Z,5.63
2022-11-05T19:32:32.533Z,5.42
2022-11-05T19:34:59.130Z,5.28
2022-11-05T19:37:25.815Z,5.13
2022-11-05T19:39:52.444Z,4.97
2022-11-05T19:42:19.035Z,5.07
2022-11-05T19:44:45.671Z,5.01
2022-11-05T19:47:12.263Z,5.17
2022-11-05T19:49:38.999Z,5.24
2022-11-05T19:52:06.690Z,5.19
2022-11-05T19:54:35.581Z,5.33
2022-11-05T19:57:02.181Z,5.34
2022-11-05T19:59:28.703Z,5.40
2022-11-05T20:01:55.443Z,5.38
2022-11-05T20:04:22.123Z,5.27
2022-11-05T20:06:51.175Z,5.13
2022-11-05T20:09:22.601Z,4.92
2022-11-05T20:11:52.464Z,5.13
2022-11-05T20:14:19.131Z,5.23
2022-11-05T20:16:46.694Z,5.22
2022-11-05T20:19:17.076Z,5.03
2022-11-05T20:21:44.546Z,5.00
2022-11-05T20:24:13.303Z,5.09
2022-11-05T20:26:41.012Z,4.88
2022-11-05T20:29:07.726Z,4.76
2022-11-05T20:31:34.373Z,4.88
2022-11-05T20:34:00.980Z,4.66
2022-11-05T20:36:27.680Z,4.67
2022-11-05T20:38:56.642Z,4.47
2022-11-05T20:41:23.746Z,4.47
2022-11-05T20:43:51.041Z,4.80
2022-11-05T20:46:19.832Z,4.82
2022-11-05T20:48:46.802Z,4.91
2022-11-05T20:51:16.201Z,4.68
2022-11-05T20:53:43.443Z,4.41
2022-11-05T20:56:20.347Z,4.48
2022-11-05T20:58:47.502Z,4.26
2022-11-05T21:01:16.525Z,4.35
2022-11-05T21:03:44.544Z,4.36
2022-11-05T21:06:11.740Z,4.15
2022-11-05T21:08:38.872Z,4.38
2022-11-05T21:11:06.900Z,4.28
2022-11-05T21:13:36.013Z,4.35
2022-11-05T21:16:06.215Z,4.19
2022-11-05T21:18:35.315Z,4.18
2022-11-05T21:21:14.194Z,3.99
2022-11-05T21:23:41.779Z,3.95
2022-11-05T21:26:11.006Z,4.05
2022-11-05T21:28:39.384Z,4.04
2022-11-05T21:31:07.628Z,4.25
2022-11-05T21:33:34.666Z,3.99
2022-11-05T21:36:10.060Z,3.79
2022-11-05T21:38:36.915Z,3.74
2022-11-05T21:41:05.749Z,3.66
2022-11-05T21:43:32.524Z,3.73
2022-11-05T21:46:03.900Z,3.69
2022-11-05T21:48:31.334Z,3.62
2022-11-05T21:51:16.516Z,3.56
2022-11-05T21:54:01.713Z,3.81
2022-11-05T21:56:47.013Z,3.68
2022-11-05T21:59:34.807Z,3.60
2022-11-05T22:02:02.144Z,3.51
2022-11-05T22:04:33.986Z,3.45
2022-11-05T22:07:00.830Z,3.41
2022-11-05T22:09:27.602Z,3.36
2022-11-05T22:11:54.759Z,3.40
2022-11-05T22:14:21.821Z,3.26
2022-11-05T22:16:48.746Z,3.21
2022-11-05T22:19:15.348Z,3.25
2022-11-05T22:21:42.131Z,3.22
2022-11-05T22:24:11.303Z,3.18
2022-11-05T22:26:39.137Z,3.15
2022-11-05T22:29:06.388Z,3.08
2022-11-05T22:31:36.407Z,2.98
2022-11-05T22:34:04.866Z,3.05
2022-11-05T22:36:32.670Z,3.14
2022-11-05T22:38:59.466Z,3.08
2022-11-05T22:41:26.172Z,2.99
2022-11-05T22:43:52.904Z,3.06
2022-11-05T22:46:22.452Z,3.05
2022-11-05T22:48:49.988Z,3.00
2022-11-05T22:51:22.505Z,2.99
2022-11-05T22:53:49.475Z,3.05
2022-11-05T22:56:23.919Z,2.91
2022-11-05T22:58:51.218Z,2.96
2022-11-05T23:01:19.716Z,2.94
2022-11-05T23:03:48.164Z,2.90
2022-11-05T23:06:38.854Z,2.92
2022-11-05T23:09:54.342Z,2.92
2022-11-05T23:12:29.963Z,2.94
2022-11-05T23:14:58.535Z,2.98
2022-11-05T23:17:44.427Z,2.99
2022-11-05T23:20:35.790Z,2.94
2022-11-05T23:23:21.090Z,2.94
2022-11-05T23:25:48.221Z,2.91
2022-11-05T23:28:15.095Z,2.85
2022-11-05T23:31:06.233Z,2.83
2022-11-05T23:33:34.218Z,2.87
2022-11-05T23:36:19.476Z,2.80
2022-11-05T23:38:46.664Z,2.81
2022-11-05T23:41:31.817Z,2.78
2022-11-05T23:44:17.209Z,2.78
2022-11-05T23:47:08.318Z,2.77
2022-11-05T23:49:36.271Z,2.74
2022-11-05T23:52:02.894Z,2.65
2022-11-05T23:54:31.081Z,2.67
2022-11-05T23:56:57.753Z,2.66
2022-11-05T23:59:26.607Z,2.68
